sensor_id;sensor_type;location;lat;lon;timestamp;temperature;humidity
16643;DHT22;8435;52.184;5.406;2022-09-09T00:01:23;18.30;99.90
16643;DHT22;8435;52.184;5.406;2022-09-09T00:03:55;18.30;99.90
16643;DHT22;8435;52.184;5.406;2022-09-09T00:06:28;18.30;99.90
16643;DHT22;8435;52.184;5.406;2022-09-09T00:09:01;18.30;99.90
16643;DHT22;8435;52.184;5.406;2022-09-09T00:11:36;18.30;99.90
16643;DHT22;8435;52.184;5.406;2022-09-09T00:14:14;18.20;99.90
16643;DHT22;8435;52.184;5.406;2022-09-09T00:16:49;18.20;99.90
16643;DHT22;8435;52.184;5.406;2022-09-09T00:19:21;18.20;99.90
16643;DHT22;8435;52.184;5.406;2022-09-09T00:21:57;18.20;99.90
16643;DHT22;8435;52.184;5.406;2022-09-09T00:24:29;18.20;99.90
16643;DHT22;8435;52.184;5.406;2022-09-09T00:27:02;18.20;99.90
16643;DHT22;8435;52.184;5.406;2022-09-09T00:29:37;18.20;99.90
16643;DHT22;8435;52.184;5.406;2022-09-09T00:32:13;18.20;99.90
16643;DHT22;8435;52.184;5.406;2022-09-09T00:34:46;18.20;99.90
16643;DHT22;8435;52.184;5.406;2022-09-09T00:37:15;18.20;99.90
16643;DHT22;8435;52.184;5.406;2022-09-09T00:39:45;18.20;99.90
16643;DHT22;8435;52.184;5.406;2022-09-09T00:42:15;18.20;99.90
16643;DHT22;8435;52.184;5.406;2022-09-09T00:44:51;18.10;99.90
16643;DHT22;8435;52.184;5.406;2022-09-09T00:47:35;18.10;99.90
16643;DHT22;8435;52.184;5.406;2022-09-09T00:50:17;18.10;99.90
16643;DHT22;8435;52.184;5.406;2022-09-09T00:52:59;18.10;99.90
16643;DHT22;8435;52.184;5.406;2022-09-09T00:55:33;18.10;99.90
16643;DHT22;8435;52.184;5.406;2022-09-09T00:58:07;18.10;99.90
16643;DHT22;8435;52.184;5.406;2022-09-09T01:00:42;18.10;99.90
16643;DHT22;8435;52.184;5.406;2022-09-09T01:03:25;18.00;99.90
16643;DHT22;8435;52.184;5.406;2022-09-09T01:06:11;18.00;99.90
16643;DHT22;8435;52.184;5.406;2022-09-09T01:08:56;18.00;99.90
16643;DHT22;8435;52.184;5.406;2022-09-09T01:11:36;18.00;99.90
16643;DHT22;8435;52.184;5.406;2022-09-09T01:14:11;17.90;99.90
16643;DHT22;8435;52.184;5.406;2022-09-09T01:16:40;17.90;99.90
16643;DHT22;8435;52.184;5.406;2022-09-09T01:19:12;17.90;99.90
16643;DHT22;8435;52.184;5.406;2022-09-09T01:21:56;17.90;99.90
16643;DHT22;8435;52.184;5.406;2022-09-09T01:24:36;17.80;99.90
16643;DHT22;8435;52.184;5.406;2022-09-09T01:27:06;17.80;99.90
16643;DHT22;8435;52.184;5.406;2022-09-09T01:29:37;17.80;99.90
16643;DHT22;8435;52.184;5.406;2022-09-09T01:32:38;17.80;99.90
16643;DHT22;8435;52.184;5.406;2022-09-09T01:35:07;17.80;99.90
16643;DHT22;8435;52.184;5.406;2022-09-09T01:37:37;17.70;99.90
16643;DHT22;8435;52.184;5.406;2022-09-09T01:40:05;17.70;99.90
16643;DHT22;8435;52.184;5.406;2022-09-09T01:42:33;17.70;99.90
16643;DHT22;8435;52.184;5.406;2022-09-09T01:45:00;17.70;99.90
16643;DHT22;8435;52.184;5.406;2022-09-09T01:47:27;17.60;99.90
16643;DHT22;8435;52.184;5.406;2022-09-09T01:49:54;17.60;99.90
16643;DHT22;8435;52.184;5.406;2022-09-09T01:52:21;17.60;99.90
16643;DHT22;8435;52.184;5.406;2022-09-09T01:54:47;17.60;99.90
16643;DHT22;8435;52.184;5.406;2022-09-09T01:57:18;17.50;99.90
16643;DHT22;8435;52.184;5.406;2022-09-09T01:59:56;17.50;99.90
16643;DHT22;8435;52.184;5.406;2022-09-09T02:02:30;17.50;99.90
16643;DHT22;8435;52.184;5.406;2022-09-09T02:05:06;17.50;99.90
16643;DHT22;8435;52.184;5.406;2022-09-09T02:07:40;17.50;99.90
16643;DHT22;8435;52.184;5.406;2022-09-09T02:10:10;17.40;99.90
16643;DHT22;8435;52.184;5.406;2022-09-09T02:12:40;17.50;99.90
16643;DHT22;8435;52.184;5.406;2022-09-09T02:15:19;17.40;99.90
16643;DHT22;8435;52.184;5.406;2022-09-09T02:17:49;17.40;99.90
16643;DHT22;8435;52.184;5.406;2022-09-09T02:20:18;17.30;99.90
16643;DHT22;8435;52.184;5.406;2022-09-09T02:22:48;17.30;99.90
16643;DHT22;8435;52.184;5.406;2022-09-09T02:25:19;17.20;99.90
16643;DHT22;8435;52.184;5.406;2022-09-09T02:27:47;17.30;99.90
16643;DHT22;8435;52.184;5.406;2022-09-09T02:30:18;17.30;99.90
16643;DHT22;8435;52.184;5.406;2022-09-09T02:32:46;17.20;99.90
16643;DHT22;8435;52.184;5.406;2022-09-09T02:35:18;17.20;99.90
16643;DHT22;8435;52.184;5.406;2022-09-09T02:37:47;17.20;99.90
16643;DHT22;8435;52.184;5.406;2022-09-09T02:40:15;17.20;99.90
16643;DHT22;8435;52.184;5.406;2022-09-09T02:42:43;17.10;99.90
16643;DHT22;8435;52.184;5.406;2022-09-09T02:45:12;17.20;99.90
16643;DHT22;8435;52.184;5.406;2022-09-09T02:47:45;17.10;99.90
16643;DHT22;8435;52.184;5.406;2022-09-09T02:50:17;17.20;99.90
16643;DHT22;8435;52.184;5.406;2022-09-09T02:52:54;17.20;99.90
16643;DHT22;8435;52.184;5.406;2022-09-09T02:55:35;17.10;99.90
16643;DHT22;8435;52.184;5.406;2022-09-09T02:58:05;17.10;99.90
16643;DHT22;8435;52.184;5.406;2022-09-09T03:00:36;17.10;99.90
16643;DHT22;8435;52.184;5.406;2022-09-09T03:03:05;17.10;99.90
16643;DHT22;8435;52.184;5.406;2022-09-09T03:05:32;17.10;99.90
16643;DHT22;8435;52.184;5.406;2022-09-09T03:07:59;17.10;99.90
16643;DHT22;8435;52.184;5.406;2022-09-09T03:10:25;17.00;99.90
16643;DHT22;8435;52.184;5.406;2022-09-09T03:12:52;17.00;99.90
16643;DHT22;8435;52.184;5.406;2022-09-09T03:15:22;17.00;99.90
16643;DHT22;8435;52.184;5.406;2022-09-09T03:17:48;17.10;99.90
16643;DHT22;8435;52.184;5.406;2022-09-09T03:20:18;17.00;99.90
16643;DHT22;8435;52.184;5.406;2022-09-09T03:22:44;17.00;99.90
16643;DHT22;8435;52.184;5.406;2022-09-09T03:25:11;17.00;99.90
16643;DHT22;8435;52.184;5.406;2022-09-09T03:27:38;17.00;99.90
16643;DHT22;8435;52.184;5.406;2022-09-09T03:30:08;16.90;99.90
16643;DHT22;8435;52.184;5.406;2022-09-09T03:32:37;16.90;99.90
16643;DHT22;8435;52.184;5.406;2022-09-09T03:35:06;16.90;99.90
16643;DHT22;8435;52.184;5.406;2022-09-09T03:37:34;16.90;99.90
16643;DHT22;8435;52.184;5.406;2022-09-09T03:40:02;16.90;99.90
16643;DHT22;8435;52.184;5.406;2022-09-09T03:42:29;16.80;99.90
16643;DHT22;8435;52.184;5.406;2022-09-09T03:44:56;16.80;99.90
16643;DHT22;8435;52.184;5.406;2022-09-09T03:47:23;16.80;99.90
16643;DHT22;8435;52.184;5.406;2022-09-09T03:49:50;16.80;99.90
16643;DHT22;8435;52.184;5.406;2022-09-09T03:52:17;16.80;99.90
16643;DHT22;8435;52.184;5.406;2022-09-09T03:54:45;16.80;99.90
16643;DHT22;8435;52.184;5.406;2022-09-09T03:57:12;16.70;99.90
16643;DHT22;8435;52.184;5.406;2022-09-09T03:59:42;16.70;99.90
16643;DHT22;8435;52.184;5.406;2022-09-09T04:02:09;16.80;99.90
16643;DHT22;8435;52.184;5.406;2022-09-09T04:04:35;16.70;99.90
16643;DHT22;8435;52.184;5.406;2022-09-09T04:07:05;16.70;99.90
16643;DHT22;8435;52.184;5.406;2022-09-09T04:09:32;16.70;99.90
16643;DHT22;8435;52.184;5.406;2022-09-09T04:12:02;16.70;99.90
16643;DHT22;8435;52.184;5.406;2022-09-09T04:14:32;16.70;99.90
16643;DHT22;8435;52.184;5.406;2022-09-09T04:16:59;16.70;99.90
16643;DHT22;8435;52.184;5.406;2022-09-09T04:19:26;16.70;99.90
16643;DHT22;8435;52.184;5.406;2022-09-09T04:21:53;16.60;99.90
16643;DHT22;8435;52.184;5.406;2022-09-09T04:24:20;16.70;99.90
16643;DHT22;8435;52.184;5.406;2022-09-09T04:26:47;16.70;99.90
16643;DHT22;8435;52.184;5.406;2022-09-09T04:29:15;16.60;99.90
16643;DHT22;8435;52.184;5.406;2022-09-09T04:31:42;16.60;99.90
16643;DHT22;8435;52.184;5.406;2022-09-09T04:34:10;16.60;99.90
16643;DHT22;8435;52.184;5.406;2022-09-09T04:36:39;16.60;99.90
16643;DHT22;8435;52.184;5.406;2022-09-09T04:39:06;16.60;99.90
16643;DHT22;8435;52.184;5.406;2022-09-09T04:41:33;16.60;99.90
16643;DHT22;8435;52.184;5.406;2022-09-09T04:44:01;16.60;99.90
16643;DHT22;8435;52.184;5.406;2022-09-09T04:46:29;16.50;99.90
16643;DHT22;8435;52.184;5.406;2022-09-09T04:48:56;16.60;99.90
16643;DHT22;8435;52.184;5.406;2022-09-09T04:51:23;16.60;99.90
16643;DHT22;8435;52.184;5.406;2022-09-09T04:53:50;16.60;99.90
16643;DHT22;8435;52.184;5.406;2022-09-09T04:56:19;16.60;99.90
16643;DHT22;8435;52.184;5.406;2022-09-09T04:58:47;16.60;99.90
16643;DHT22;8435;52.184;5.406;2022-09-09T05:01:16;16.60;99.90
16643;DHT22;8435;52.184;5.406;2022-09-09T05:03:45;16.60;99.90
16643;DHT22;8435;52.184;5.406;2022-09-09T05:06:16;16.70;99.90
16643;DHT22;8435;52.184;5.406;2022-09-09T05:08:44;16.70;99.90
16643;DHT22;8435;52.184;5.406;2022-09-09T05:11:15;16.70;99.90
16643;DHT22;8435;52.184;5.406;2022-09-09T05:13:42;16.70;99.90
16643;DHT22;8435;52.184;5.406;2022-09-09T05:16:09;16.70;99.90
16643;DHT22;8435;52.184;5.406;2022-09-09T05:18:37;16.60;99.90
16643;DHT22;8435;52.184;5.406;2022-09-09T05:21:05;16.70;99.90
16643;DHT22;8435;52.184;5.406;2022-09-09T05:23:32;16.70;99.90
16643;DHT22;8435;52.184;5.406;2022-09-09T05:25:59;16.70;99.90
16643;DHT22;8435;52.184;5.406;2022-09-09T05:28:29;16.70;99.90
16643;DHT22;8435;52.184;5.406;2022-09-09T05:30:57;16.70;99.90
16643;DHT22;8435;52.184;5.406;2022-09-09T05:33:24;16.60;99.90
16643;DHT22;8435;52.184;5.406;2022-09-09T05:35:56;16.70;99.90
16643;DHT22;8435;52.184;5.406;2022-09-09T05:38:24;16.70;99.90
16643;DHT22;8435;52.184;5.406;2022-09-09T05:40:51;16.70;99.90
16643;DHT22;8435;52.184;5.406;2022-09-09T05:43:18;16.70;99.90
16643;DHT22;8435;52.184;5.406;2022-09-09T05:45:46;16.70;99.90
16643;DHT22;8435;52.184;5.406;2022-09-09T05:48:13;16.70;99.90
16643;DHT22;8435;52.184;5.406;2022-09-09T05:50:41;16.70;99.90
16643;DHT22;8435;52.184;5.406;2022-09-09T05:53:08;16.70;99.90
16643;DHT22;8435;52.184;5.406;2022-09-09T05:55:36;16.70;99.90
16643;DHT22;8435;52.184;5.406;2022-09-09T05:58:03;16.70;99.90
16643;DHT22;8435;52.184;5.406;2022-09-09T06:00:30;16.80;99.90
16643;DHT22;8435;52.184;5.406;2022-09-09T06:02:57;16.80;99.90
16643;DHT22;8435;52.184;5.406;2022-09-09T06:05:24;16.80;99.90
16643;DHT22;8435;52.184;5.406;2022-09-09T06:07:53;16.80;99.90
16643;DHT22;8435;52.184;5.406;2022-09-09T06:10:20;16.80;99.90
16643;DHT22;8435;52.184;5.406;2022-09-09T06:12:48;16.90;99.90
16643;DHT22;8435;52.184;5.406;2022-09-09T06:15:15;16.90;99.90
16643;DHT22;8435;52.184;5.406;2022-09-09T06:17:42;16.90;99.90
16643;DHT22;8435;52.184;5.406;2022-09-09T06:20:10;17.00;99.90
16643;DHT22;8435;52.184;5.406;2022-09-09T06:22:39;17.00;99.90
16643;DHT22;8435;52.184;5.406;2022-09-09T06:25:07;17.00;99.90
16643;DHT22;8435;52.184;5.406;2022-09-09T06:27:34;17.00;99.90
16643;DHT22;8435;52.184;5.406;2022-09-09T06:30:03;17.10;99.90
16643;DHT22;8435;52.184;5.406;2022-09-09T06:32:30;17.10;99.90
16643;DHT22;8435;52.184;5.406;2022-09-09T06:34:58;17.20;99.90
16643;DHT22;8435;52.184;5.406;2022-09-09T06:37:26;17.20;99.90
16643;DHT22;8435;52.184;5.406;2022-09-09T06:39:53;17.20;99.90
16643;DHT22;8435;52.184;5.406;2022-09-09T06:42:20;17.30;99.90
16643;DHT22;8435;52.184;5.406;2022-09-09T06:44:47;17.30;99.90
16643;DHT22;8435;52.184;5.406;2022-09-09T06:47:15;17.40;99.90
16643;DHT22;8435;52.184;5.406;2022-09-09T06:49:42;17.50;99.90
16643;DHT22;8435;52.184;5.406;2022-09-09T06:52:11;17.60;99.90
16643;DHT22;8435;52.184;5.406;2022-09-09T06:54:38;17.70;99.90
16643;DHT22;8435;52.184;5.406;2022-09-09T06:57:05;17.90;99.90
16643;DHT22;8435;52.184;5.406;2022-09-09T06:59:33;17.90;99.90
16643;DHT22;8435;52.184;5.406;2022-09-09T07:02:00;18.00;99.90
16643;DHT22;8435;52.184;5.406;2022-09-09T07:04:28;18.10;99.90
16643;DHT22;8435;52.184;5.406;2022-09-09T07:06:54;18.20;99.90
16643;DHT22;8435;52.184;5.406;2022-09-09T07:09:21;18.30;99.90
16643;DHT22;8435;52.184;5.406;2022-09-09T07:11:51;18.40;99.90
16643;DHT22;8435;52.184;5.406;2022-09-09T07:14:19;18.50;99.90
16643;DHT22;8435;52.184;5.406;2022-09-09T07:16:46;18.60;99.90
16643;DHT22;8435;52.184;5.406;2022-09-09T07:19:13;18.70;99.90
16643;DHT22;8435;52.184;5.406;2022-09-09T07:21:42;18.80;99.90
16643;DHT22;8435;52.184;5.406;2022-09-09T07:24:10;18.90;99.90
16643;DHT22;8435;52.184;5.406;2022-09-09T07:26:37;19.00;99.90
16643;DHT22;8435;52.184;5.406;2022-09-09T07:29:04;19.10;99.90
16643;DHT22;8435;52.184;5.406;2022-09-09T07:31:33;19.10;99.90
16643;DHT22;8435;52.184;5.406;2022-09-09T07:34:01;19.20;99.90
16643;DHT22;8435;52.184;5.406;2022-09-09T07:36:29;19.20;99.90
16643;DHT22;8435;52.184;5.406;2022-09-09T07:38:59;19.20;99.90
16643;DHT22;8435;52.184;5.406;2022-09-09T07:41:29;19.20;99.90
16643;DHT22;8435;52.184;5.406;2022-09-09T07:43:58;19.20;99.90
16643;DHT22;8435;52.184;5.406;2022-09-09T07:46:27;19.30;99.90
16643;DHT22;8435;52.184;5.406;2022-09-09T07:48:55;19.20;99.90
16643;DHT22;8435;52.184;5.406;2022-09-09T07:51:26;19.30;99.90
16643;DHT22;8435;52.184;5.406;2022-09-09T07:53:54;19.30;99.90
16643;DHT22;8435;52.184;5.406;2022-09-09T07:56:25;19.30;99.90
16643;DHT22;8435;52.184;5.406;2022-09-09T07:58:55;19.40;99.90
16643;DHT22;8435;52.184;5.406;2022-09-09T08:01:24;19.50;99.90
16643;DHT22;8435;52.184;5.406;2022-09-09T08:03:58;19.60;99.90
16643;DHT22;8435;52.184;5.406;2022-09-09T08:06:27;19.70;99.90
16643;DHT22;8435;52.184;5.406;2022-09-09T08:08:54;19.80;99.90
16643;DHT22;8435;52.184;5.406;2022-09-09T08:11:25;19.90;99.90
16643;DHT22;8435;52.184;5.406;2022-09-09T08:13:53;20.00;99.90
16643;DHT22;8435;52.184;5.406;2022-09-09T08:16:21;20.00;99.90
16643;DHT22;8435;52.184;5.406;2022-09-09T08:18:49;20.10;99.90
16643;DHT22;8435;52.184;5.406;2022-09-09T08:21:18;20.20;99.90
16643;DHT22;8435;52.184;5.406;2022-09-09T08:23:50;20.20;99.90
16643;DHT22;8435;52.184;5.406;2022-09-09T08:26:19;20.30;99.60
16643;DHT22;8435;52.184;5.406;2022-09-09T08:28:50;20.30;99.40
16643;DHT22;8435;52.184;5.406;2022-09-09T08:31:19;20.30;99.30
16643;DHT22;8435;52.184;5.406;2022-09-09T08:33:46;20.30;99.60
16643;DHT22;8435;52.184;5.406;2022-09-09T08:36:15;20.20;99.30
16643;DHT22;8435;52.184;5.406;2022-09-09T08:38:43;20.20;99.10
16643;DHT22;8435;52.184;5.406;2022-09-09T08:41:29;20.20;99.00
16643;DHT22;8435;52.184;5.406;2022-09-09T08:44:07;20.20;98.90
16643;DHT22;8435;52.184;5.406;2022-09-09T08:46:42;20.10;99.20
16643;DHT22;8435;52.184;5.406;2022-09-09T08:49:40;20.10;99.10
16643;DHT22;8435;52.184;5.406;2022-09-09T08:52:25;20.00;99.10
16643;DHT22;8435;52.184;5.406;2022-09-09T08:54:56;20.00;99.10
16643;DHT22;8435;52.184;5.406;2022-09-09T08:57:26;20.00;99.10
16643;DHT22;8435;52.184;5.406;2022-09-09T08:59:56;20.00;99.10
16643;DHT22;8435;52.184;5.406;2022-09-09T09:02:25;20.00;99.20
16643;DHT22;8435;52.184;5.406;2022-09-09T09:05:10;20.00;99.20
16643;DHT22;8435;52.184;5.406;2022-09-09T09:07:52;20.00;99.00
16643;DHT22;8435;52.184;5.406;2022-09-09T09:10:32;20.00;99.00
16643;DHT22;8435;52.184;5.406;2022-09-09T09:13:02;20.10;99.10
16643;DHT22;8435;52.184;5.406;2022-09-09T09:15:36;20.10;99.10
16643;DHT22;8435;52.184;5.406;2022-09-09T09:18:04;20.10;99.00
16643;DHT22;8435;52.184;5.406;2022-09-09T09:20:42;20.10;99.10
16643;DHT22;8435;52.184;5.406;2022-09-09T09:23:21;20.10;98.90
16643;DHT22;8435;52.184;5.406;2022-09-09T09:25:50;20.10;99.00
16643;DHT22;8435;52.184;5.406;2022-09-09T09:28:24;20.10;98.90
16643;DHT22;8435;52.184;5.406;2022-09-09T09:30:56;20.10;98.80
16643;DHT22;8435;52.184;5.406;2022-09-09T09:33:30;20.10;98.60
16643;DHT22;8435;52.184;5.406;2022-09-09T09:36:02;20.10;98.60
16643;DHT22;8435;52.184;5.406;2022-09-09T09:38:35;20.10;98.70
16643;DHT22;8435;52.184;5.406;2022-09-09T09:41:02;20.00;98.50
16643;DHT22;8435;52.184;5.406;2022-09-09T09:43:30;20.00;98.60
16643;DHT22;8435;52.184;5.406;2022-09-09T09:45:59;20.00;98.50
16643;DHT22;8435;52.184;5.406;2022-09-09T09:48:27;20.00;98.70
16643;DHT22;8435;52.184;5.406;2022-09-09T09:50:55;20.00;98.80
16643;DHT22;8435;52.184;5.406;2022-09-09T09:53:25;20.00;98.70
16643;DHT22;8435;52.184;5.406;2022-09-09T09:55:56;20.00;98.70
16643;DHT22;8435;52.184;5.406;2022-09-09T09:58:25;20.00;98.70
16643;DHT22;8435;52.184;5.406;2022-09-09T10:00:53;20.00;98.70
16643;DHT22;8435;52.184;5.406;2022-09-09T10:03:27;20.00;98.70
16643;DHT22;8435;52.184;5.406;2022-09-09T10:05:55;20.00;98.80
16643;DHT22;8435;52.184;5.406;2022-09-09T10:08:23;20.10;98.90
16643;DHT22;8435;52.184;5.406;2022-09-09T10:11:07;20.10;99.00
16643;DHT22;8435;52.184;5.406;2022-09-09T10:13:48;20.20;99.00
16643;DHT22;8435;52.184;5.406;2022-09-09T10:16:29;20.30;98.60
16643;DHT22;8435;52.184;5.406;2022-09-09T10:19:01;20.20;98.60
16643;DHT22;8435;52.184;5.406;2022-09-09T10:21:56;20.30;98.60
16643;DHT22;8435;52.184;5.406;2022-09-09T10:24:59;20.30;98.40
16643;DHT22;8435;52.184;5.406;2022-09-09T10:27:41;20.40;98.50
16643;DHT22;8435;52.184;5.406;2022-09-09T10:30:15;20.40;98.40
16643;DHT22;8435;52.184;5.406;2022-09-09T10:32:47;20.40;98.40
16643;DHT22;8435;52.184;5.406;2022-09-09T10:35:30;20.40;98.30
16643;DHT22;8435;52.184;5.406;2022-09-09T10:38:13;20.40;98.20
16643;DHT22;8435;52.184;5.406;2022-09-09T10:40:48;20.40;98.10
16643;DHT22;8435;52.184;5.406;2022-09-09T10:43:37;20.30;98.30
16643;DHT22;8435;52.184;5.406;2022-09-09T10:46:10;20.30;98.40
16643;DHT22;8435;52.184;5.406;2022-09-09T10:48:50;20.30;99.00
16643;DHT22;8435;52.184;5.406;2022-09-09T10:51:26;20.30;99.10
16643;DHT22;8435;52.184;5.406;2022-09-09T10:54:12;20.30;99.00
16643;DHT22;8435;52.184;5.406;2022-09-09T10:56:42;20.40;99.10
16643;DHT22;8435;52.184;5.406;2022-09-09T10:59:14;20.40;99.40
16643;DHT22;8435;52.184;5.406;2022-09-09T11:01:46;20.40;99.20
16643;DHT22;8435;52.184;5.406;2022-09-09T11:04:19;20.40;99.10
16643;DHT22;8435;52.184;5.406;2022-09-09T11:06:54;20.40;99.20
16643;DHT22;8435;52.184;5.406;2022-09-09T11:09:25;20.40;99.20
16643;DHT22;8435;52.184;5.406;2022-09-09T11:11:57;20.40;99.10
16643;DHT22;8435;52.184;5.406;2022-09-09T11:14:30;20.40;99.10
16643;DHT22;8435;52.184;5.406;2022-09-09T11:17:02;20.40;99.40
16643;DHT22;8435;52.184;5.406;2022-09-09T11:19:34;20.50;99.50
16643;DHT22;8435;52.184;5.406;2022-09-09T11:22:08;20.50;99.60
16643;DHT22;8435;52.184;5.406;2022-09-09T11:24:45;20.50;99.50
16643;DHT22;8435;52.184;5.406;2022-09-09T11:27:16;20.60;99.20
16643;DHT22;8435;52.184;5.406;2022-09-09T11:30:13;20.70;99.20
16643;DHT22;8435;52.184;5.406;2022-09-09T11:33:07;20.70;99.10
16643;DHT22;8435;52.184;5.406;2022-09-09T11:35:44;20.80;99.00
16643;DHT22;8435;52.184;5.406;2022-09-09T11:38:19;20.80;98.90
16643;DHT22;8435;52.184;5.406;2022-09-09T11:40:55;20.80;98.70
16643;DHT22;8435;52.184;5.406;2022-09-09T11:43:28;20.90;98.80
16643;DHT22;8435;52.184;5.406;2022-09-09T11:45:58;20.90;98.70
16643;DHT22;8435;52.184;5.406;2022-09-09T11:48:32;20.90;98.70
16643;DHT22;8435;52.184;5.406;2022-09-09T11:51:03;20.90;98.70
16643;DHT22;8435;52.184;5.406;2022-09-09T11:53:32;20.90;98.50
16643;DHT22;8435;52.184;5.406;2022-09-09T11:56:01;20.90;98.60
16643;DHT22;8435;52.184;5.406;2022-09-09T11:58:33;21.00;98.60
16643;DHT22;8435;52.184;5.406;2022-09-09T12:01:13;21.00;98.40
16643;DHT22;8435;52.184;5.406;2022-09-09T12:03:42;21.00;98.30
16643;DHT22;8435;52.184;5.406;2022-09-09T12:06:13;21.10;98.60
16643;DHT22;8435;52.184;5.406;2022-09-09T12:08:45;21.10;98.60
16643;DHT22;8435;52.184;5.406;2022-09-09T12:11:24;21.10;98.50
16643;DHT22;8435;52.184;5.406;2022-09-09T12:13:59;21.10;98.70
16643;DHT22;8435;52.184;5.406;2022-09-09T12:16:31;21.10;98.90
16643;DHT22;8435;52.184;5.406;2022-09-09T12:19:12;21.10;98.90
16643;DHT22;8435;52.184;5.406;2022-09-09T12:21:56;21.10;99.30
16643;DHT22;8435;52.184;5.406;2022-09-09T12:24:33;21.20;99.20
16643;DHT22;8435;52.184;5.406;2022-09-09T12:27:10;21.20;98.90
16643;DHT22;8435;52.184;5.406;2022-09-09T12:29:47;21.20;98.90
16643;DHT22;8435;52.184;5.406;2022-09-09T12:32:22;21.20;98.80
16643;DHT22;8435;52.184;5.406;2022-09-09T12:34:53;21.20;98.80
16643;DHT22;8435;52.184;5.406;2022-09-09T12:37:28;21.10;98.80
16643;DHT22;8435;52.184;5.406;2022-09-09T12:40:01;21.00;98.80
16643;DHT22;8435;52.184;5.406;2022-09-09T12:42:29;20.90;98.90
16643;DHT22;8435;52.184;5.406;2022-09-09T12:45:16;20.90;99.20
16643;DHT22;8435;52.184;5.406;2022-09-09T12:47:47;20.80;99.60
16643;DHT22;8435;52.184;5.406;2022-09-09T12:50:17;20.70;99.60
16643;DHT22;8435;52.184;5.406;2022-09-09T12:52:46;20.80;99.90
16643;DHT22;8435;52.184;5.406;2022-09-09T12:55:19;20.80;99.90
16643;DHT22;8435;52.184;5.406;2022-09-09T12:57:48;20.80;99.90
16643;DHT22;8435;52.184;5.406;2022-09-09T13:00:18;20.80;99.90
16643;DHT22;8435;52.184;5.406;2022-09-09T13:02:49;20.90;99.90
16643;DHT22;8435;52.184;5.406;2022-09-09T13:05:20;20.90;99.80
16643;DHT22;8435;52.184;5.406;2022-09-09T13:07:48;21.00;99.90
16643;DHT22;8435;52.184;5.406;2022-09-09T13:10:26;21.00;99.80
16643;DHT22;8435;52.184;5.406;2022-09-09T13:12:54;21.10;99.90
16643;DHT22;8435;52.184;5.406;2022-09-09T13:15:23;21.10;99.80
16643;DHT22;8435;52.184;5.406;2022-09-09T13:17:53;21.20;99.50
16643;DHT22;8435;52.184;5.406;2022-09-09T13:20:21;21.20;99.60
16643;DHT22;8435;52.184;5.406;2022-09-09T13:22:50;21.20;99.50
16643;DHT22;8435;52.184;5.406;2022-09-09T13:25:23;21.40;99.40
16643;DHT22;8435;52.184;5.406;2022-09-09T13:27:57;21.40;99.40
16643;DHT22;8435;52.184;5.406;2022-09-09T13:30:26;21.40;99.10
16643;DHT22;8435;52.184;5.406;2022-09-09T13:33:20;21.50;98.90
16643;DHT22;8435;52.184;5.406;2022-09-09T13:35:50;21.60;98.70
16643;DHT22;8435;52.184;5.406;2022-09-09T13:38:18;21.70;98.80
16643;DHT22;8435;52.184;5.406;2022-09-09T13:41:00;21.70;98.80
16643;DHT22;8435;52.184;5.406;2022-09-09T13:43:31;21.70;98.80
16643;DHT22;8435;52.184;5.406;2022-09-09T13:45:59;21.80;98.40
16643;DHT22;8435;52.184;5.406;2022-09-09T13:48:27;21.80;98.40
16643;DHT22;8435;52.184;5.406;2022-09-09T13:51:01;21.80;98.60
16643;DHT22;8435;52.184;5.406;2022-09-09T13:53:28;21.80;98.20
16643;DHT22;8435;52.184;5.406;2022-09-09T13:55:57;21.70;98.30
16643;DHT22;8435;52.184;5.406;2022-09-09T13:58:25;21.70;98.40
16643;DHT22;8435;52.184;5.406;2022-09-09T14:00:55;21.60;98.50
16643;DHT22;8435;52.184;5.406;2022-09-09T14:03:23;21.60;98.60
16643;DHT22;8435;52.184;5.406;2022-09-09T14:05:49;21.60;98.80
16643;DHT22;8435;52.184;5.406;2022-09-09T14:08:24;21.50;98.80
16643;DHT22;8435;52.184;5.406;2022-09-09T14:10:52;21.50;98.70
16643;DHT22;8435;52.184;5.406;2022-09-09T14:13:25;21.40;98.50
16643;DHT22;8435;52.184;5.406;2022-09-09T14:15:51;21.40;98.60
16643;DHT22;8435;52.184;5.406;2022-09-09T14:18:19;21.40;98.70
16643;DHT22;8435;52.184;5.406;2022-09-09T14:20:47;21.40;98.60
16643;DHT22;8435;52.184;5.406;2022-09-09T14:23:16;21.30;98.60
16643;DHT22;8435;52.184;5.406;2022-09-09T14:25:46;21.30;98.80
16643;DHT22;8435;52.184;5.406;2022-09-09T14:28:13;21.30;98.80
16643;DHT22;8435;52.184;5.406;2022-09-09T14:30:42;21.20;98.60
16643;DHT22;8435;52.184;5.406;2022-09-09T14:33:11;21.30;98.80
16643;DHT22;8435;52.184;5.406;2022-09-09T14:35:38;21.20;98.90
16643;DHT22;8435;52.184;5.406;2022-09-09T14:38:06;21.20;99.10
16643;DHT22;8435;52.184;5.406;2022-09-09T14:40:34;21.20;99.20
16643;DHT22;8435;52.184;5.406;2022-09-09T14:43:01;21.20;99.60
16643;DHT22;8435;52.184;5.406;2022-09-09T14:45:28;21.20;98.90
16643;DHT22;8435;52.184;5.406;2022-09-09T14:48:00;21.20;98.90
16643;DHT22;8435;52.184;5.406;2022-09-09T14:50:26;21.20;99.30
16643;DHT22;8435;52.184;5.406;2022-09-09T14:52:54;21.20;99.10
16643;DHT22;8435;52.184;5.406;2022-09-09T14:55:21;21.20;99.40
16643;DHT22;8435;52.184;5.406;2022-09-09T14:57:48;21.20;99.30
16643;DHT22;8435;52.184;5.406;2022-09-09T15:00:15;21.20;99.50
16643;DHT22;8435;52.184;5.406;2022-09-09T15:02:42;21.20;99.40
16643;DHT22;8435;52.184;5.406;2022-09-09T15:05:10;21.10;99.30
16643;DHT22;8435;52.184;5.406;2022-09-09T15:07:37;21.10;99.40
16643;DHT22;8435;52.184;5.406;2022-09-09T15:10:05;21.10;99.40
16643;DHT22;8435;52.184;5.406;2022-09-09T15:12:34;21.00;99.80
16643;DHT22;8435;52.184;5.406;2022-09-09T15:15:02;21.00;99.90
16643;DHT22;8435;52.184;5.406;2022-09-09T15:17:29;21.00;99.90
16643;DHT22;8435;52.184;5.406;2022-09-09T15:19:56;21.00;99.90
16643;DHT22;8435;52.184;5.406;2022-09-09T15:22:24;21.10;99.90
16643;DHT22;8435;52.184;5.406;2022-09-09T15:24:51;21.10;99.90
16643;DHT22;8435;52.184;5.406;2022-09-09T15:27:23;21.20;99.90
16643;DHT22;8435;52.184;5.406;2022-09-09T15:29:50;21.20;99.90
16643;DHT22;8435;52.184;5.406;2022-09-09T15:32:17;21.30;99.90
16643;DHT22;8435;52.184;5.406;2022-09-09T15:34:44;21.30;99.80
16643;DHT22;8435;52.184;5.406;2022-09-09T15:37:11;21.40;99.70
16643;DHT22;8435;52.184;5.406;2022-09-09T15:39:40;21.40;99.40
16643;DHT22;8435;52.184;5.406;2022-09-09T15:42:07;21.40;99.30
16643;DHT22;8435;52.184;5.406;2022-09-09T15:44:39;21.40;99.10
16643;DHT22;8435;52.184;5.406;2022-09-09T15:47:09;21.40;99.10
16643;DHT22;8435;52.184;5.406;2022-09-09T15:49:38;21.50;99.10
16643;DHT22;8435;52.184;5.406;2022-09-09T15:52:05;21.50;99.10
16643;DHT22;8435;52.184;5.406;2022-09-09T15:54:34;21.50;98.90
16643;DHT22;8435;52.184;5.406;2022-09-09T15:57:06;21.50;99.10
16643;DHT22;8435;52.184;5.406;2022-09-09T15:59:34;21.40;98.90
16643;DHT22;8435;52.184;5.406;2022-09-09T16:02:01;21.50;98.70
16643;DHT22;8435;52.184;5.406;2022-09-09T16:04:28;21.50;98.70
16643;DHT22;8435;52.184;5.406;2022-09-09T16:06:57;21.40;99.00
16643;DHT22;8435;52.184;5.406;2022-09-09T16:09:30;21.40;98.80